To NAV CANADA Home Page Login to a new session Search on AWWS site Feedback and Comments Disclaimer Vers la page française équivalente Tips FAQ What's new on the site To the Forecasts and Observations / NOTAM section To "File a Flight Plan" website Publications and other links Update of the User's profile FIC Telephone Numbers My Weather Data Folder Route Weather Data Regional Weather Data Local Weather Data To the Forecasts and Observations / NOTAM section
Request Generated 02/14/2016 at 22:53:09 UTC . Weather information available at that time is displayed.

METAR/TAF

ST. JOHN'S/ST. JOHN'S INTL/NL    

METAR CYYT 142200Z 31002KT 15SM FEW020 SCT140 BKN200 M09/M12 A2968
RMK SC1AS3CI3 SLP063=
METAR CYYT 142100Z 34005KT 15SM FEW020 BKN150 BKN200 M09/M12 A2967
RMK SC1AC4CI2 SLP056=
METAR CYYT 142000Z 30010KT 15SM FEW020 BKN200 M08/M12 A2968 RMK
SC1CI4 SLP060=

TAF CYYT 141738Z 1418/1518 26010KT P6SM SCT020 TEMPO 1418/1420 P6SM
-SHSN BKN020
FM142000 VRB03KT P6SM SCT020 BKN120 TEMPO 1420/1508 P6SM -SN
BKN020
BECMG 1505/1507 29015G25KT
FM150800 28015G25KT P6SM -SN BKN020 OVC030
FM151400 27022G32KT 4SM -SHSN BLSN BKN030
RMK NXT FCST BY 150000Z=
Your time UTC time
Weather data provided by Environment Canada and NAV CANADA